sensor_id;sensor_type;location;lat;lon;timestamp;temperature;humidity
77693;SHT31;66984;47.404;18.836;2023-05-02T00:00:03;16.41;40.99
77693;SHT31;66984;47.404;18.836;2023-05-02T00:01:06;16.42;41.08
77693;SHT31;66984;47.404;18.836;2023-05-02T00:02:09;16.40;41.35
77693;SHT31;66984;47.404;18.836;2023-05-02T00:03:12;16.44;41.14
77693;SHT31;66984;47.404;18.836;2023-05-02T00:04:15;16.47;41.16
77693;SHT31;66984;47.404;18.836;2023-05-02T00:05:18;16.44;41.29
77693;SHT31;66984;47.404;18.836;2023-05-02T00:06:22;16.45;41.28
77693;SHT31;66984;47.404;18.836;2023-05-02T00:07:25;16.41;41.27
77693;SHT31;66984;47.404;18.836;2023-05-02T00:08:28;16.44;41.25
77693;SHT31;66984;47.404;18.836;2023-05-02T00:09:31;16.47;41.31
77693;SHT31;66984;47.404;18.836;2023-05-02T00:10:34;16.44;41.44
77693;SHT31;66984;47.404;18.836;2023-05-02T00:11:37;16.48;41.25
77693;SHT31;66984;47.404;18.836;2023-05-02T00:12:40;16.51;41.21
77693;SHT31;66984;47.404;18.836;2023-05-02T00:13:43;16.52;41.38
77693;SHT31;66984;47.404;18.836;2023-05-02T00:14:46;16.55;41.21
77693;SHT31;66984;47.404;18.836;2023-05-02T00:15:49;16.57;41.37
77693;SHT31;66984;47.404;18.836;2023-05-02T00:16:52;16.54;41.34
77693;SHT31;66984;47.404;18.836;2023-05-02T00:17:55;16.54;41.20
77693;SHT31;66984;47.404;18.836;2023-05-02T00:18:57;16.52;41.35
77693;SHT31;66984;47.404;18.836;2023-05-02T00:20:00;16.51;41.17
77693;SHT31;66984;47.404;18.836;2023-05-02T00:21:06;16.52;41.14
77693;SHT31;66984;47.404;18.836;2023-05-02T00:22:10;16.58;41.14
77693;SHT31;66984;47.404;18.836;2023-05-02T00:23:12;16.58;41.00
77693;SHT31;66984;47.404;18.836;2023-05-02T00:24:16;16.58;40.95
77693;SHT31;66984;47.404;18.836;2023-05-02T00:25:19;16.59;41.15
77693;SHT31;66984;47.404;18.836;2023-05-02T00:26:22;16.59;41.10
77693;SHT31;66984;47.404;18.836;2023-05-02T00:27:25;16.57;40.97
77693;SHT31;66984;47.404;18.836;2023-05-02T00:28:28;16.59;40.93
77693;SHT31;66984;47.404;18.836;2023-05-02T00:29:31;16.61;41.10
77693;SHT31;66984;47.404;18.836;2023-05-02T00:30:34;16.62;41.01
77693;SHT31;66984;47.404;18.836;2023-05-02T00:31:40;16.62;40.98
77693;SHT31;66984;47.404;18.836;2023-05-02T00:32:43;16.62;41.16
77693;SHT31;66984;47.404;18.836;2023-05-02T00:33:46;16.64;41.12
77693;SHT31;66984;47.404;18.836;2023-05-02T00:34:49;16.61;40.94
77693;SHT31;66984;47.404;18.836;2023-05-02T00:35:52;16.61;40.99
77693;SHT31;66984;47.404;18.836;2023-05-02T00:36:55;16.61;41.02
77693;SHT31;66984;47.404;18.836;2023-05-02T00:37:59;16.62;41.05
77693;SHT31;66984;47.404;18.836;2023-05-02T00:39:02;16.61;41.19
77693;SHT31;66984;47.404;18.836;2023-05-02T00:40:06;16.57;41.22
77693;SHT31;66984;47.404;18.836;2023-05-02T00:41:09;16.61;41.25
77693;SHT31;66984;47.404;18.836;2023-05-02T00:42:12;16.58;41.36
77693;SHT31;66984;47.404;18.836;2023-05-02T00:43:15;16.54;41.46
77693;SHT31;66984;47.404;18.836;2023-05-02T00:44:18;16.49;41.61
77693;SHT31;66984;47.404;18.836;2023-05-02T00:45:21;16.49;41.69
77693;SHT31;66984;47.404;18.836;2023-05-02T00:46:24;16.51;41.65
77693;SHT31;66984;47.404;18.836;2023-05-02T00:47:27;16.51;41.67
77693;SHT31;66984;47.404;18.836;2023-05-02T00:48:30;16.48;41.74
77693;SHT31;66984;47.404;18.836;2023-05-02T00:49:33;16.51;41.72
77693;SHT31;66984;47.404;18.836;2023-05-02T00:50:38;16.47;41.82
77693;SHT31;66984;47.404;18.836;2023-05-02T00:51:45;16.48;41.81
77693;SHT31;66984;47.404;18.836;2023-05-02T00:52:47;16.48;41.82
77693;SHT31;66984;47.404;18.836;2023-05-02T00:53:51;16.47;41.76
77693;SHT31;66984;47.404;18.836;2023-05-02T00:54:54;16.45;41.96
77693;SHT31;66984;47.404;18.836;2023-05-02T00:55:58;16.48;41.94
77693;SHT31;66984;47.404;18.836;2023-05-02T00:57:01;16.44;42.03
77693;SHT31;66984;47.404;18.836;2023-05-02T00:58:07;16.41;42.23
77693;SHT31;66984;47.404;18.836;2023-05-02T00:59:12;16.38;42.34
77693;SHT31;66984;47.404;18.836;2023-05-02T01:00:17;16.38;42.42
77693;SHT31;66984;47.404;18.836;2023-05-02T01:03:09;16.40;42.68
77693;SHT31;66984;47.404;18.836;2023-05-02T01:04:37;16.34;42.79
77693;SHT31;66984;47.404;18.836;2023-05-02T01:06:30;16.31;42.89
77693;SHT31;66984;47.404;18.836;2023-05-02T01:08:16;16.27;43.02
77693;SHT31;66984;47.404;18.836;2023-05-02T01:10:47;16.31;43.00
77693;SHT31;66984;47.404;18.836;2023-05-02T01:13:25;16.31;43.23
77693;SHT31;66984;47.404;18.836;2023-05-02T01:14:33;16.30;43.05
77693;SHT31;66984;47.404;18.836;2023-05-02T01:15:38;16.21;43.40
77693;SHT31;66984;47.404;18.836;2023-05-02T01:16:42;16.24;43.32
77693;SHT31;66984;47.404;18.836;2023-05-02T01:17:47;16.22;43.31
77693;SHT31;66984;47.404;18.836;2023-05-02T01:18:53;16.20;43.52
77693;SHT31;66984;47.404;18.836;2023-05-02T01:19:58;16.16;43.50
77693;SHT31;66984;47.404;18.836;2023-05-02T01:21:06;16.18;43.48
77693;SHT31;66984;47.404;18.836;2023-05-02T01:22:10;16.17;43.49
77693;SHT31;66984;47.404;18.836;2023-05-02T01:24:33;16.20;43.58
77693;SHT31;66984;47.404;18.836;2023-05-02T01:25:59;16.20;43.69
77693;SHT31;66984;47.404;18.836;2023-05-02T01:28:57;16.18;43.79
77693;SHT31;66984;47.404;18.836;2023-05-02T01:30:01;16.14;43.88
77693;SHT31;66984;47.404;18.836;2023-05-02T01:31:05;16.13;43.98
77693;SHT31;66984;47.404;18.836;2023-05-02T01:32:11;16.16;44.06
77693;SHT31;66984;47.404;18.836;2023-05-02T01:33:16;16.14;44.16
77693;SHT31;66984;47.404;18.836;2023-05-02T01:34:21;16.11;44.20
77693;SHT31;66984;47.404;18.836;2023-05-02T01:35:25;16.11;44.17
77693;SHT31;66984;47.404;18.836;2023-05-02T01:36:31;16.07;44.31
77693;SHT31;66984;47.404;18.836;2023-05-02T01:37:37;16.07;44.43
77693;SHT31;66984;47.404;18.836;2023-05-02T01:38:42;16.09;44.50
77693;SHT31;66984;47.404;18.836;2023-05-02T01:39:45;16.04;44.53
77693;SHT31;66984;47.404;18.836;2023-05-02T01:40:49;16.03;44.52
77693;SHT31;66984;47.404;18.836;2023-05-02T01:41:55;16.06;44.93
77693;SHT31;66984;47.404;18.836;2023-05-02T01:42:59;16.03;44.99
77693;SHT31;66984;47.404;18.836;2023-05-02T01:44:06;16.04;45.01
77693;SHT31;66984;47.404;18.836;2023-05-02T01:45:11;16.04;45.33
77693;SHT31;66984;47.404;18.836;2023-05-02T01:46:14;16.00;45.34
77693;SHT31;66984;47.404;18.836;2023-05-02T01:47:18;16.00;45.24
77693;SHT31;66984;47.404;18.836;2023-05-02T01:48:24;15.99;45.60
77693;SHT31;66984;47.404;18.836;2023-05-02T01:49:32;15.96;45.73
77693;SHT31;66984;47.404;18.836;2023-05-02T01:50:36;15.96;45.97
77693;SHT31;66984;47.404;18.836;2023-05-02T01:51:44;15.96;45.99
77693;SHT31;66984;47.404;18.836;2023-05-02T01:52:50;15.97;45.82
77693;SHT31;66984;47.404;18.836;2023-05-02T01:53:55;15.96;45.86
77693;SHT31;66984;47.404;18.836;2023-05-02T01:54:59;15.96;45.87
77693;SHT31;66984;47.404;18.836;2023-05-02T01:56:03;15.93;45.97
77693;SHT31;66984;47.404;18.836;2023-05-02T01:57:07;15.93;46.13
77693;SHT31;66984;47.404;18.836;2023-05-02T01:58:13;15.90;46.45
77693;SHT31;66984;47.404;18.836;2023-05-02T01:59:19;15.87;46.82
77693;SHT31;66984;47.404;18.836;2023-05-02T02:00:24;15.90;47.21
77693;SHT31;66984;47.404;18.836;2023-05-02T02:01:28;15.89;47.16
77693;SHT31;66984;47.404;18.836;2023-05-02T02:02:34;15.90;47.44
77693;SHT31;66984;47.404;18.836;2023-05-02T02:03:37;15.90;47.34
77693;SHT31;66984;47.404;18.836;2023-05-02T02:04:40;15.90;47.89
77693;SHT31;66984;47.404;18.836;2023-05-02T02:05:46;15.90;47.64
77693;SHT31;66984;47.404;18.836;2023-05-02T02:06:54;15.96;47.18
77693;SHT31;66984;47.404;18.836;2023-05-02T02:07:59;15.97;46.96
77693;SHT31;66984;47.404;18.836;2023-05-02T02:09:02;15.97;47.06
77693;SHT31;66984;47.404;18.836;2023-05-02T02:10:06;16.00;47.25
77693;SHT31;66984;47.404;18.836;2023-05-02T02:11:10;15.99;46.89
77693;SHT31;66984;47.404;18.836;2023-05-02T02:12:25;16.01;46.96
77693;SHT31;66984;47.404;18.836;2023-05-02T02:13:38;16.03;46.78
77693;SHT31;66984;47.404;18.836;2023-05-02T02:14:50;16.03;46.62
77693;SHT31;66984;47.404;18.836;2023-05-02T02:15:59;15.99;46.83
77693;SHT31;66984;47.404;18.836;2023-05-02T02:17:11;16.00;47.69
77693;SHT31;66984;47.404;18.836;2023-05-02T02:18:20;15.96;47.67
77693;SHT31;66984;47.404;18.836;2023-05-02T02:19:25;15.96;47.66
77693;SHT31;66984;47.404;18.836;2023-05-02T02:20:28;15.93;47.33
77693;SHT31;66984;47.404;18.836;2023-05-02T02:21:33;15.89;47.21
77693;SHT31;66984;47.404;18.836;2023-05-02T02:22:39;15.87;47.27
77693;SHT31;66984;47.404;18.836;2023-05-02T02:23:46;15.85;47.78
77693;SHT31;66984;47.404;18.836;2023-05-02T02:24:51;15.80;48.32
77693;SHT31;66984;47.404;18.836;2023-05-02T02:25:55;15.78;48.16
77693;SHT31;66984;47.404;18.836;2023-05-02T02:26:59;15.78;48.33
77693;SHT31;66984;47.404;18.836;2023-05-02T02:28:02;15.78;49.02
77693;SHT31;66984;47.404;18.836;2023-05-02T02:29:05;15.78;49.14
77693;SHT31;66984;47.404;18.836;2023-05-02T02:30:09;15.80;48.68
77693;SHT31;66984;47.404;18.836;2023-05-02T02:31:12;15.82;48.65
77693;SHT31;66984;47.404;18.836;2023-05-02T02:32:15;15.82;48.60
77693;SHT31;66984;47.404;18.836;2023-05-02T02:33:19;15.80;48.57
77693;SHT31;66984;47.404;18.836;2023-05-02T02:34:25;15.82;48.74
77693;SHT31;66984;47.404;18.836;2023-05-02T02:35:36;15.83;48.60
77693;SHT31;66984;47.404;18.836;2023-05-02T02:36:47;15.89;48.95
77693;SHT31;66984;47.404;18.836;2023-05-02T02:38:10;15.87;49.41
77693;SHT31;66984;47.404;18.836;2023-05-02T02:39:59;15.89;49.44
77693;SHT31;66984;47.404;18.836;2023-05-02T02:40:50;15.87;49.33
77693;SHT31;66984;47.404;18.836;2023-05-02T02:43:11;15.83;49.83
77693;SHT31;66984;47.404;18.836;2023-05-02T02:45:42;15.87;50.24
77693;SHT31;66984;47.404;18.836;2023-05-02T02:47:09;15.89;49.75
77693;SHT31;66984;47.404;18.836;2023-05-02T02:48:33;15.90;49.65
77693;SHT31;66984;47.404;18.836;2023-05-02T02:49:48;15.89;49.78
77693;SHT31;66984;47.404;18.836;2023-05-02T02:52:17;15.90;50.16
77693;SHT31;66984;47.404;18.836;2023-05-02T02:53:33;15.90;50.65
77693;SHT31;66984;47.404;18.836;2023-05-02T02:56:03;15.85;50.54
77693;SHT31;66984;47.404;18.836;2023-05-02T02:57:25;15.87;50.44
77693;SHT31;66984;47.404;18.836;2023-05-02T02:58:46;15.86;50.27
77693;SHT31;66984;47.404;18.836;2023-05-02T03:00:06;15.86;50.14
77693;SHT31;66984;47.404;18.836;2023-05-02T03:01:14;15.85;50.31
77693;SHT31;66984;47.404;18.836;2023-05-02T03:02:21;15.78;50.48
77693;SHT31;66984;47.404;18.836;2023-05-02T03:03:31;15.74;50.93
77693;SHT31;66984;47.404;18.836;2023-05-02T03:04:37;15.73;51.26
77693;SHT31;66984;47.404;18.836;2023-05-02T03:05:42;15.72;51.39
77693;SHT31;66984;47.404;18.836;2023-05-02T03:06:46;15.70;51.85
77693;SHT31;66984;47.404;18.836;2023-05-02T03:07:49;15.69;51.85
77693;SHT31;66984;47.404;18.836;2023-05-02T03:08:53;15.69;52.09
77693;SHT31;66984;47.404;18.836;2023-05-02T03:09:55;15.69;51.90
77693;SHT31;66984;47.404;18.836;2023-05-02T03:10:59;15.70;51.80
77693;SHT31;66984;47.404;18.836;2023-05-02T03:12:02;15.74;51.93
77693;SHT31;66984;47.404;18.836;2023-05-02T03:13:05;15.78;51.91
77693;SHT31;66984;47.404;18.836;2023-05-02T03:14:08;15.80;51.83
77693;SHT31;66984;47.404;18.836;2023-05-02T03:15:21;15.82;52.14
77693;SHT31;66984;47.404;18.836;2023-05-02T03:16:36;15.85;52.01
77693;SHT31;66984;47.404;18.836;2023-05-02T03:17:39;15.86;52.04
77693;SHT31;66984;47.404;18.836;2023-05-02T03:18:42;15.87;52.03
77693;SHT31;66984;47.404;18.836;2023-05-02T03:19:45;15.86;51.93
77693;SHT31;66984;47.404;18.836;2023-05-02T03:20:48;15.90;51.79
77693;SHT31;66984;47.404;18.836;2023-05-02T03:21:51;15.93;51.67
77693;SHT31;66984;47.404;18.836;2023-05-02T03:22:54;15.93;51.72
77693;SHT31;66984;47.404;18.836;2023-05-02T03:23:58;15.91;51.67
77693;SHT31;66984;47.404;18.836;2023-05-02T03:25:01;15.93;51.72
77693;SHT31;66984;47.404;18.836;2023-05-02T03:26:05;15.91;51.72
77693;SHT31;66984;47.404;18.836;2023-05-02T03:27:08;15.93;51.72
77693;SHT31;66984;47.404;18.836;2023-05-02T03:28:11;15.91;51.84
77693;SHT31;66984;47.404;18.836;2023-05-02T03:29:14;15.91;51.98
77693;SHT31;66984;47.404;18.836;2023-05-02T03:30:17;15.89;51.95
77693;SHT31;66984;47.404;18.836;2023-05-02T03:31:21;15.87;52.07
77693;SHT31;66984;47.404;18.836;2023-05-02T03:32:27;15.86;52.11
77693;SHT31;66984;47.404;18.836;2023-05-02T03:33:30;15.80;52.22
77693;SHT31;66984;47.404;18.836;2023-05-02T03:34:33;15.80;52.34
77693;SHT31;66984;47.404;18.836;2023-05-02T03:35:37;15.80;52.45
77693;SHT31;66984;47.404;18.836;2023-05-02T03:36:49;15.79;52.46
77693;SHT31;66984;47.404;18.836;2023-05-02T03:37:52;15.79;52.48
77693;SHT31;66984;47.404;18.836;2023-05-02T03:38:55;15.79;52.42
77693;SHT31;66984;47.404;18.836;2023-05-02T03:39:58;15.79;52.59
77693;SHT31;66984;47.404;18.836;2023-05-02T03:41:02;15.79;52.44
77693;SHT31;66984;47.404;18.836;2023-05-02T03:42:05;15.79;52.66
77693;SHT31;66984;47.404;18.836;2023-05-02T03:43:08;15.73;52.64
77693;SHT31;66984;47.404;18.836;2023-05-02T03:44:11;15.70;52.77
77693;SHT31;66984;47.404;18.836;2023-05-02T03:45:14;15.73;52.75
77693;SHT31;66984;47.404;18.836;2023-05-02T03:46:17;15.73;52.76
77693;SHT31;66984;47.404;18.836;2023-05-02T03:47:20;15.74;52.83
77693;SHT31;66984;47.404;18.836;2023-05-02T03:48:23;15.73;53.05
77693;SHT31;66984;47.404;18.836;2023-05-02T03:49:26;15.70;53.16
77693;SHT31;66984;47.404;18.836;2023-05-02T03:50:28;15.73;53.17
77693;SHT31;66984;47.404;18.836;2023-05-02T03:51:31;15.70;53.12
77693;SHT31;66984;47.404;18.836;2023-05-02T03:52:35;15.72;53.16
77693;SHT31;66984;47.404;18.836;2023-05-02T03:53:38;15.72;53.25
77693;SHT31;66984;47.404;18.836;2023-05-02T03:54:41;15.69;53.26
77693;SHT31;66984;47.404;18.836;2023-05-02T03:55:48;15.72;53.33
77693;SHT31;66984;47.404;18.836;2023-05-02T03:56:53;15.69;53.34
77693;SHT31;66984;47.404;18.836;2023-05-02T03:57:56;15.69;53.41
77693;SHT31;66984;47.404;18.836;2023-05-02T03:58:59;15.66;53.48
77693;SHT31;66984;47.404;18.836;2023-05-02T04:00:02;15.66;53.42
77693;SHT31;66984;47.404;18.836;2023-05-02T04:01:13;15.63;53.76
77693;SHT31;66984;47.404;18.836;2023-05-02T04:02:16;15.67;53.64
77693;SHT31;66984;47.404;18.836;2023-05-02T04:03:20;15.69;53.58
77693;SHT31;66984;47.404;18.836;2023-05-02T04:04:23;15.70;53.69
77693;SHT31;66984;47.404;18.836;2023-05-02T04:05:26;15.72;53.63
77693;SHT31;66984;47.404;18.836;2023-05-02T04:06:29;15.72;53.73
77693;SHT31;66984;47.404;18.836;2023-05-02T04:07:34;15.70;53.55
77693;SHT31;66984;47.404;18.836;2023-05-02T04:08:37;15.72;53.65
77693;SHT31;66984;47.404;18.836;2023-05-02T04:09:40;15.74;53.47
77693;SHT31;66984;47.404;18.836;2023-05-02T04:10:43;15.73;53.61
77693;SHT31;66984;47.404;18.836;2023-05-02T04:11:46;15.74;53.51
77693;SHT31;66984;47.404;18.836;2023-05-02T04:12:49;15.76;53.72
77693;SHT31;66984;47.404;18.836;2023-05-02T04:13:52;15.79;53.58
77693;SHT31;66984;47.404;18.836;2023-05-02T04:14:54;15.79;53.58
77693;SHT31;66984;47.404;18.836;2023-05-02T04:15:57;15.80;53.65
77693;SHT31;66984;47.404;18.836;2023-05-02T04:17:00;15.80;53.49
77693;SHT31;66984;47.404;18.836;2023-05-02T04:18:03;15.80;53.35
77693;SHT31;66984;47.404;18.836;2023-05-02T04:19:06;15.83;53.41
77693;SHT31;66984;47.404;18.836;2023-05-02T04:20:10;15.86;53.14
77693;SHT31;66984;47.404;18.836;2023-05-02T04:21:13;15.85;53.43
77693;SHT31;66984;47.404;18.836;2023-05-02T04:22:16;15.86;53.29
77693;SHT31;66984;47.404;18.836;2023-05-02T04:23:18;15.87;53.12
77693;SHT31;66984;47.404;18.836;2023-05-02T04:24:21;15.89;53.26
77693;SHT31;66984;47.404;18.836;2023-05-02T04:25:24;15.93;53.45
77693;SHT31;66984;47.404;18.836;2023-05-02T04:26:27;15.97;53.40
77693;SHT31;66984;47.404;18.836;2023-05-02T04:27:30;15.99;53.38
77693;SHT31;66984;47.404;18.836;2023-05-02T04:28:34;16.00;53.42
77693;SHT31;66984;47.404;18.836;2023-05-02T04:29:37;15.99;53.47
77693;SHT31;66984;47.404;18.836;2023-05-02T04:30:40;16.01;53.52
77693;SHT31;66984;47.404;18.836;2023-05-02T04:31:43;16.01;53.73
77693;SHT31;66984;47.404;18.836;2023-05-02T04:32:46;16.04;53.57
77693;SHT31;66984;47.404;18.836;2023-05-02T04:33:49;16.06;53.30
77693;SHT31;66984;47.404;18.836;2023-05-02T04:34:52;16.07;53.39
77693;SHT31;66984;47.404;18.836;2023-05-02T04:35:55;16.11;53.08
77693;SHT31;66984;47.404;18.836;2023-05-02T04:37:00;16.18;52.75
77693;SHT31;66984;47.404;18.836;2023-05-02T04:38:03;16.18;52.74
77693;SHT31;66984;47.404;18.836;2023-05-02T04:39:06;16.21;52.80
77693;SHT31;66984;47.404;18.836;2023-05-02T04:40:09;16.25;52.63
77693;SHT31;66984;47.404;18.836;2023-05-02T04:41:13;16.27;52.66
77693;SHT31;66984;47.404;18.836;2023-05-02T04:42:16;16.30;52.62
77693;SHT31;66984;47.404;18.836;2023-05-02T04:43:19;16.30;52.35
77693;SHT31;66984;47.404;18.836;2023-05-02T04:44:25;16.34;52.21
77693;SHT31;66984;47.404;18.836;2023-05-02T04:45:28;16.31;52.02
77693;SHT31;66984;47.404;18.836;2023-05-02T04:46:31;16.34;52.10
77693;SHT31;66984;47.404;18.836;2023-05-02T04:47:36;16.38;51.93
77693;SHT31;66984;47.404;18.836;2023-05-02T04:48:39;16.42;52.01
77693;SHT31;66984;47.404;18.836;2023-05-02T04:49:43;16.48;52.05
77693;SHT31;66984;47.404;18.836;2023-05-02T04:50:46;16.51;51.95
77693;SHT31;66984;47.404;18.836;2023-05-02T04:51:49;16.54;52.03
77693;SHT31;66984;47.404;18.836;2023-05-02T04:52:54;16.61;51.85
77693;SHT31;66984;47.404;18.836;2023-05-02T04:54:03;16.61;51.87
77693;SHT31;66984;47.404;18.836;2023-05-02T04:55:06;16.64;51.46
77693;SHT31;66984;47.404;18.836;2023-05-02T04:56:09;16.65;51.67
77693;SHT31;66984;47.404;18.836;2023-05-02T04:57:13;16.68;51.66
77693;SHT31;66984;47.404;18.836;2023-05-02T04:58:16;16.68;51.69
77693;SHT31;66984;47.404;18.836;2023-05-02T04:59:19;16.65;51.42
77693;SHT31;66984;47.404;18.836;2023-05-02T05:00:22;16.71;51.66
77693;SHT31;66984;47.404;18.836;2023-05-02T05:01:25;16.68;51.55
77693;SHT31;66984;47.404;18.836;2023-05-02T05:02:31;16.69;51.36
77693;SHT31;66984;47.404;18.836;2023-05-02T05:03:34;16.72;51.33
77693;SHT31;66984;47.404;18.836;2023-05-02T05:04:38;16.78;51.45
77693;SHT31;66984;47.404;18.836;2023-05-02T05:05:41;16.79;51.01
77693;SHT31;66984;47.404;18.836;2023-05-02T05:06:44;16.79;51.17
77693;SHT31;66984;47.404;18.836;2023-05-02T05:07:49;16.80;51.03
77693;SHT31;66984;47.404;18.836;2023-05-02T05:08:54;16.79;51.38
77693;SHT31;66984;47.404;18.836;2023-05-02T05:09:57;16.76;51.14
77693;SHT31;66984;47.404;18.836;2023-05-02T05:11:01;16.82;50.75
77693;SHT31;66984;47.404;18.836;2023-05-02T05:12:04;16.88;50.74
77693;SHT31;66984;47.404;18.836;2023-05-02T05:13:07;16.90;50.62
77693;SHT31;66984;47.404;18.836;2023-05-02T05:14:09;16.88;50.68
77693;SHT31;66984;47.404;18.836;2023-05-02T05:15:13;16.88;50.23
77693;SHT31;66984;47.404;18.836;2023-05-02T05:16:16;16.88;50.01
77693;SHT31;66984;47.404;18.836;2023-05-02T05:17:20;16.89;49.90
77693;SHT31;66984;47.404;18.836;2023-05-02T05:18:23;16.92;49.96
77693;SHT31;66984;47.404;18.836;2023-05-02T05:19:26;16.95;50.03
77693;SHT31;66984;47.404;18.836;2023-05-02T05:20:29;16.96;50.01
77693;SHT31;66984;47.404;18.836;2023-05-02T05:21:32;16.95;50.01
77693;SHT31;66984;47.404;18.836;2023-05-02T05:22:38;16.97;50.17
77693;SHT31;66984;47.404;18.836;2023-05-02T05:23:41;17.00;50.43
77693;SHT31;66984;47.404;18.836;2023-05-02T05:24:53;17.02;50.36
77693;SHT31;66984;47.404;18.836;2023-05-02T05:25:56;17.07;49.52
77693;SHT31;66984;47.404;18.836;2023-05-02T05:26:59;17.09;49.59
77693;SHT31;66984;47.404;18.836;2023-05-02T05:28:02;17.12;49.64
77693;SHT31;66984;47.404;18.836;2023-05-02T05:29:05;17.13;49.90
77693;SHT31;66984;47.404;18.836;2023-05-02T05:30:09;17.16;49.74
77693;SHT31;66984;47.404;18.836;2023-05-02T05:31:13;17.16;49.61
77693;SHT31;66984;47.404;18.836;2023-05-02T05:32:20;17.22;49.60
77693;SHT31;66984;47.404;18.836;2023-05-02T05:33:23;17.22;49.39
77693;SHT31;66984;47.404;18.836;2023-05-02T05:34:27;17.20;49.56
77693;SHT31;66984;47.404;18.836;2023-05-02T05:35:29;17.23;49.76
77693;SHT31;66984;47.404;18.836;2023-05-02T05:36:34;17.23;49.68
77693;SHT31;66984;47.404;18.836;2023-05-02T05:37:37;17.24;49.59
77693;SHT31;66984;47.404;18.836;2023-05-02T05:38:41;17.31;49.67
77693;SHT31;66984;47.404;18.836;2023-05-02T05:39:44;17.30;49.07
77693;SHT31;66984;47.404;18.836;2023-05-02T05:40:48;17.37;49.35
77693;SHT31;66984;47.404;18.836;2023-05-02T05:41:52;17.38;49.26
77693;SHT31;66984;47.404;18.836;2023-05-02T05:42:56;17.41;49.12
77693;SHT31;66984;47.404;18.836;2023-05-02T05:43:59;17.41;49.05
77693;SHT31;66984;47.404;18.836;2023-05-02T05:45:01;17.38;48.88
77693;SHT31;66984;47.404;18.836;2023-05-02T05:46:04;17.38;49.30
77693;SHT31;66984;47.404;18.836;2023-05-02T05:47:07;17.40;48.95
77693;SHT31;66984;47.404;18.836;2023-05-02T05:48:10;17.43;49.00
77693;SHT31;66984;47.404;18.836;2023-05-02T05:49:16;17.34;48.98
77693;SHT31;66984;47.404;18.836;2023-05-02T05:50:19;17.33;49.43
77693;SHT31;66984;47.404;18.836;2023-05-02T05:51:22;17.36;49.14
77693;SHT31;66984;47.404;18.836;2023-05-02T05:52:25;17.37;49.03
77693;SHT31;66984;47.404;18.836;2023-05-02T05:53:29;17.38;49.22
77693;SHT31;66984;47.404;18.836;2023-05-02T05:54:32;17.36;49.19
77693;SHT31;66984;47.404;18.836;2023-05-02T05:55:35;17.36;49.12
77693;SHT31;66984;47.404;18.836;2023-05-02T05:56:42;17.37;49.32
77693;SHT31;66984;47.404;18.836;2023-05-02T05:57:45;17.37;49.18
77693;SHT31;66984;47.404;18.836;2023-05-02T05:58:48;17.43;49.19
77693;SHT31;66984;47.404;18.836;2023-05-02T05:59:51;17.43;49.16
77693;SHT31;66984;47.404;18.836;2023-05-02T06:00:54;17.40;49.12
77693;SHT31;66984;47.404;18.836;2023-05-02T06:01:57;17.50;49.63
77693;SHT31;66984;47.404;18.836;2023-05-02T06:03:01;17.51;49.05
77693;SHT31;66984;47.404;18.836;2023-05-02T06:04:08;17.54;48.92
77693;SHT31;66984;47.404;18.836;2023-05-02T06:05:11;17.57;49.02
77693;SHT31;66984;47.404;18.836;2023-05-02T06:06:14;17.55;49.17
77693;SHT31;66984;47.404;18.836;2023-05-02T06:07:17;17.55;48.92
77693;SHT31;66984;47.404;18.836;2023-05-02T06:08:20;17.53;48.41
77693;SHT31;66984;47.404;18.836;2023-05-02T06:09:23;17.55;49.03
77693;SHT31;66984;47.404;18.836;2023-05-02T06:10:26;17.60;49.53
77693;SHT31;66984;47.404;18.836;2023-05-02T06:11:29;17.61;49.16
77693;SHT31;66984;47.404;18.836;2023-05-02T06:12:32;17.65;49.70
77693;SHT31;66984;47.404;18.836;2023-05-02T06:13:35;17.67;49.24
77693;SHT31;66984;47.404;18.836;2023-05-02T06:14:37;17.74;49.41
77693;SHT31;66984;47.404;18.836;2023-05-02T06:15:40;17.77;48.75
77693;SHT31;66984;47.404;18.836;2023-05-02T06:16:43;17.79;48.24
77693;SHT31;66984;47.404;18.836;2023-05-02T06:17:46;17.81;48.54
77693;SHT31;66984;47.404;18.836;2023-05-02T06:18:50;17.81;48.50
77693;SHT31;66984;47.404;18.836;2023-05-02T06:19:54;17.82;48.80
77693;SHT31;66984;47.404;18.836;2023-05-02T06:20:57;17.86;48.78
77693;SHT31;66984;47.404;18.836;2023-05-02T06:22:04;17.88;49.07
77693;SHT31;66984;47.404;18.836;2023-05-02T06:23:07;17.92;48.54
77693;SHT31;66984;47.404;18.836;2023-05-02T06:24:10;17.92;48.05
77693;SHT31;66984;47.404;18.836;2023-05-02T06:25:13;17.91;48.40
77693;SHT31;66984;47.404;18.836;2023-05-02T06:26:16;17.95;48.56
77693;SHT31;66984;47.404;18.836;2023-05-02T06:27:19;17.98;48.06
77693;SHT31;66984;47.404;18.836;2023-05-02T06:28:22;18.01;48.48
77693;SHT31;66984;47.404;18.836;2023-05-02T06:29:25;18.05;48.43
77693;SHT31;66984;47.404;18.836;2023-05-02T06:30:27;18.02;48.15
77693;SHT31;66984;47.404;18.836;2023-05-02T06:31:30;17.98;47.70
77693;SHT31;66984;47.404;18.836;2023-05-02T06:32:33;18.01;48.30
77693;SHT31;66984;47.404;18.836;2023-05-02T06:33:36;18.04;48.46
77693;SHT31;66984;47.404;18.836;2023-05-02T06:34:39;18.09;48.20
77693;SHT31;66984;47.404;18.836;2023-05-02T06:35:42;18.08;48.53
77693;SHT31;66984;47.404;18.836;2023-05-02T06:36:45;18.12;48.35
77693;SHT31;66984;47.404;18.836;2023-05-02T06:37:48;18.17;47.66
77693;SHT31;66984;47.404;18.836;2023-05-02T06:38:51;18.22;47.83
77693;SHT31;66984;47.404;18.836;2023-05-02T06:39:53;18.32;48.02
77693;SHT31;66984;47.404;18.836;2023-05-02T06:40:56;18.37;47.80
77693;SHT31;66984;47.404;18.836;2023-05-02T06:41:59;18.43;47.76
77693;SHT31;66984;47.404;18.836;2023-05-02T06:43:03;18.46;46.98
77693;SHT31;66984;47.404;18.836;2023-05-02T06:44:07;18.42;46.92
77693;SHT31;66984;47.404;18.836;2023-05-02T06:45:10;18.43;47.28
77693;SHT31;66984;47.404;18.836;2023-05-02T06:46:13;18.46;47.22
77693;SHT31;66984;47.404;18.836;2023-05-02T06:47:16;18.52;46.94
77693;SHT31;66984;47.404;18.836;2023-05-02T06:48:19;18.52;47.25
77693;SHT31;66984;47.404;18.836;2023-05-02T06:49:25;18.57;47.74
77693;SHT31;66984;47.404;18.836;2023-05-02T06:50:28;18.64;47.66
77693;SHT31;66984;47.404;18.836;2023-05-02T06:51:31;18.67;47.53
77693;SHT31;66984;47.404;18.836;2023-05-02T06:52:34;18.70;47.71
77693;SHT31;66984;47.404;18.836;2023-05-02T06:53:37;18.74;47.21
77693;SHT31;66984;47.404;18.836;2023-05-02T06:54:39;18.73;47.95
77693;SHT31;66984;47.404;18.836;2023-05-02T06:55:44;18.78;47.72